Time;durP1;ratioP1;P1;durP2;ratioP2;P2;SDS_P1;SDS_P2;PMS_P1;PMS_P2;Temp;Humidity;BMP_temperature;BMP_pressure;BME280_temperature;BME280_humidity;BME280_pressure;Samples;Min_cycle;Max_cycle;Signal;HPM_P1;HPM_P2
2022/04/26 03:39:09;;;;;;;10.90;6.90;;;;;;;;;;6266931;28;20045;-78
2022/04/26 03:42:11;;;;;;;10.55;6.22;;;;;;;;;;6240019;28;20045;-81
2022/04/26 03:45:13;;;;;;;11.10;6.47;;;;;;;;;;6264452;28;20126;-79
2022/04/26 03:48:15;;;;;;;10.70;6.80;;;;;;;;;;6266611;28;20182;-77
2022/04/26 03:51:17;;;;;;;8.75;6.30;;;;;;;;;;6264580;28;20048;-80
2022/04/26 03:54:23;;;;;;;11.35;6.30;;;;;;;;;;6266906;28;20061;-80
2022/04/26 03:57:24;;;;;;;13.48;6.85;;;;;;;;;;6256344;28;21887;-78
2022/04/26 04:00:26;;;;;;;10.43;6.28;;;;;;;;;;6278939;28;20078;-78
2022/04/26 04:03:29;;;;;;;11.77;6.80;;;;;;;;;;6279547;28;20135;-80
2022/04/26 04:06:30;;;;;;;11.50;6.22;;;;;;;;;;6288945;28;20044;-79
2022/04/26 04:09:32;;;;;;;10.95;6.47;;;;;;;;;;6279461;28;20152;-79
2022/04/26 04:12:35;;;;;;;11.32;7.03;;;;;;;;;;6283947;28;20048;-80
2022/04/26 04:15:37;;;;;;;11.85;7.20;;;;;;;;;;6287538;28;20052;-76
2022/04/26 04:21:59;;;;;;;12.50;7.10;;;;;;;;;;6278076;28;20509;-80
2022/04/26 04:25:00;;;;;;;13.13;7.15;;;;;;;;;;6265655;28;20060;-80
2022/04/26 04:28:02;;;;;;;14.25;7.53;;;;;;;;;;6264109;28;20115;-78
2022/04/26 04:31:04;;;;;;;11.30;6.75;;;;;;;;;;6279532;28;20631;-80
2022/04/26 04:34:06;;;;;;;10.80;6.85;;;;;;;;;;6265638;28;20048;-79
2022/04/26 04:37:08;;;;;;;10.40;6.38;;;;;;;;;;6265328;28;20745;-78
2022/04/26 04:40:10;;;;;;;11.73;7.50;;;;;;;;;;6263406;28;20048;-78
2022/04/26 04:43:12;;;;;;;10.85;6.93;;;;;;;;;;6263402;28;20072;-77
2022/04/26 04:46:14;;;;;;;10.77;6.93;;;;;;;;;;6262603;28;20044;-78
2022/04/26 04:49:16;;;;;;;11.57;6.90;;;;;;;;;;6262269;28;20443;-79
2022/04/26 04:52:19;;;;;;;13.60;7.10;;;;;;;;;;6262363;28;20124;-77
2022/04/26 04:55:22;;;;;;;10.57;6.87;;;;;;;;;;6264660;28;20056;-76
2022/04/26 04:58:23;;;;;;;10.52;7.07;;;;;;;;;;6264970;28;20512;-79
2022/04/26 05:01:25;;;;;;;12.30;7.05;;;;;;;;;;6263514;28;20123;-78
2022/04/26 05:04:27;;;;;;;12.52;7.25;;;;;;;;;;6265019;28;20041;-76
2022/04/26 05:07:29;;;;;;;11.55;7.20;;;;;;;;;;6265835;28;20041;-78
2022/04/26 05:10:33;;;;;;;12.32;7.22;;;;;;;;;;6262229;28;20033;-78
2022/04/26 05:13:34;;;;;;;11.30;7.32;;;;;;;;;;6277173;28;20187;-79
2022/04/26 05:16:36;;;;;;;13.38;8.02;;;;;;;;;;6285890;28;20068;-79
2022/04/26 05:19:38;;;;;;;12.02;7.18;;;;;;;;;;6240340;28;20037;-78
2022/04/26 05:26:01;;;;;;;13.63;8.02;;;;;;;;;;6264916;28;20698;-78
2022/04/26 05:29:05;;;;;;;14.38;7.82;;;;;;;;;;6280111;28;20041;-77
2022/04/26 05:32:07;;;;;;;14.65;7.82;;;;;;;;;;6275162;28;20037;-80
2022/04/26 05:35:10;;;;;;;13.70;8.35;;;;;;;;;;6289745;28;20140;-78
2022/04/26 05:38:15;;;;;;;12.65;7.25;;;;;;;;;;6292025;28;20106;-81
2022/04/26 05:41:17;;;;;;;13.18;7.40;;;;;;;;;;6279752;28;20061;-81
2022/04/26 05:44:18;;;;;;;12.13;7.35;;;;;;;;;;6267765;28;20087;-77
2022/04/26 05:47:20;;;;;;;12.70;7.63;;;;;;;;;;6264549;28;20168;-79
2022/04/26 05:50:22;;;;;;;13.70;7.82;;;;;;;;;;6279738;28;20044;-78
2022/04/26 05:53:23;;;;;;;16.40;7.93;;;;;;;;;;6264273;28;20140;-79
2022/04/26 05:56:25;;;;;;;13.75;8.05;;;;;;;;;;6277957;28;20144;-79
2022/04/26 05:59:26;;;;;;;14.93;7.70;;;;;;;;;;6263801;28;20116;-78
2022/04/26 06:02:28;;;;;;;14.77;8.68;;;;;;;;;;6261906;28;20190;-77
2022/04/26 06:05:30;;;;;;;17.23;8.52;;;;;;;;;;6263401;28;20829;-78
2022/04/26 06:08:32;;;;;;;15.90;8.63;;;;;;;;;;6264741;28;20073;-79
2022/04/26 06:11:34;;;;;;;17.83;8.68;;;;;;;;;;6263284;28;20052;-80
2022/04/26 06:14:36;;;;;;;16.58;8.90;;;;;;;;;;6286495;28;20100;-79
2022/04/26 06:17:37;;;;;;;16.95;9.48;;;;;;;;;;6272050;28;20125;-78
2022/04/26 06:20:39;;;;;;;16.95;9.23;;;;;;;;;;6263986;28;20118;-77
2022/04/26 06:23:41;;;;;;;16.70;9.15;;;;;;;;;;6265960;28;20536;-80
2022/04/26 06:26:43;;;;;;;16.55;9.02;;;;;;;;;;6280135;28;20351;-80
2022/04/26 06:29:44;;;;;;;15.20;8.85;;;;;;;;;;6265496;28;20064;-77
2022/04/26 06:32:46;;;;;;;17.48;9.55;;;;;;;;;;6263959;28;20182;-79
2022/04/26 06:35:48;;;;;;;16.52;9.18;;;;;;;;;;6265889;28;20080;-77
2022/04/26 06:38:49;;;;;;;17.65;10.43;;;;;;;;;;6271615;28;20128;-79
2022/04/26 06:41:51;;;;;;;20.92;10.27;;;;;;;;;;6244341;28;20138;-79
2022/04/26 06:44:53;;;;;;;19.35;10.10;;;;;;;;;;6271745;28;20045;-79
2022/04/26 06:47:54;;;;;;;21.02;10.40;;;;;;;;;;6263764;28;20096;-79
2022/04/26 06:50:56;;;;;;;17.65;9.68;;;;;;;;;;6263423;28;20215;-79
2022/04/26 06:53:58;;;;;;;16.80;9.13;;;;;;;;;;6266728;28;20072;-78
2022/04/26 06:56:59;;;;;;;19.63;9.27;;;;;;;;;;6265719;28;20094;-78
2022/04/26 07:00:01;;;;;;;15.55;8.90;;;;;;;;;;6271603;28;20037;-78
2022/04/26 07:03:03;;;;;;;19.25;9.70;;;;;;;;;;6266895;28;20036;-79
2022/04/26 07:06:05;;;;;;;16.33;9.13;;;;;;;;;;6268211;28;20391;-77
2022/04/26 07:09:07;;;;;;;20.40;10.43;;;;;;;;;;6269083;28;20122;-77
2022/04/26 07:12:08;;;;;;;42.50;21.92;;;;;;;;;;6246452;28;20047;-78
2022/04/26 07:15:11;;;;;;;25.58;12.60;;;;;;;;;;6277527;28;20087;-77
2022/04/26 07:18:13;;;;;;;18.13;9.25;;;;;;;;;;6273802;28;20071;-77
2022/04/26 07:21:15;;;;;;;20.70;11.90;;;;;;;;;;6244609;28;20050;-78
2022/04/26 07:24:16;;;;;;;17.05;8.73;;;;;;;;;;6244909;28;20468;-78
2022/04/26 07:27:20;;;;;;;15.15;8.88;;;;;;;;;;6250960;28;20069;-79
2022/04/26 07:30:22;;;;;;;16.52;8.98;;;;;;;;;;6268809;28;20067;-78
2022/04/26 07:36:44;;;;;;;15.52;8.55;;;;;;;;;;6279682;28;20052;-77
2022/04/26 07:39:45;;;;;;;21.20;13.00;;;;;;;;;;6285809;28;20102;-76
2022/04/26 07:42:47;;;;;;;18.58;9.80;;;;;;;;;;6266161;28;20057;-79
2022/04/26 07:45:49;;;;;;;18.23;9.48;;;;;;;;;;6267294;28;20195;-78
2022/04/26 07:48:51;;;;;;;20.52;10.80;;;;;;;;;;6267538;28;20041;-79
2022/04/26 07:51:53;;;;;;;22.27;11.70;;;;;;;;;;6265649;28;20056;-79
2022/04/26 07:54:55;;;;;;;24.38;11.75;;;;;;;;;;6281268;28;20123;-78
2022/04/26 07:58:00;;;;;;;22.52;11.68;;;;;;;;;;6266321;28;20083;-79
2022/04/26 08:01:02;;;;;;;23.92;11.40;;;;;;;;;;6265688;28;20120;-79
2022/04/26 08:04:04;;;;;;;16.33;9.68;;;;;;;;;;6266685;28;20051;-77
2022/04/26 08:07:06;;;;;;;18.40;10.88;;;;;;;;;;6297721;28;20110;-78
2022/04/26 08:10:09;;;;;;;18.02;9.73;;;;;;;;;;6265540;28;20049;-78
2022/04/26 08:13:11;;;;;;;20.02;10.07;;;;;;;;;;6275041;28;20078;-79
2022/04/26 08:16:13;;;;;;;50.67;34.53;;;;;;;;;;6285574;28;20087;-79
2022/04/26 08:19:15;;;;;;;110.85;41.70;;;;;;;;;;6265699;28;20393;-79
2022/04/26 08:22:16;;;;;;;21.00;10.82;;;;;;;;;;6265085;28;20053;-78
2022/04/26 08:28:38;;;;;;;17.73;9.48;;;;;;;;;;6267228;28;20083;-77
2022/04/26 08:31:41;;;;;;;24.65;12.27;;;;;;;;;;6265452;28;20049;-78
2022/04/26 08:34:43;;;;;;;21.10;12.00;;;;;;;;;;6265293;28;20513;-77
2022/04/26 08:37:45;;;;;;;20.40;10.80;;;;;;;;;;6266739;28;20123;-79
2022/04/26 08:40:46;;;;;;;21.58;11.05;;;;;;;;;;6263982;28;20129;-79
2022/04/26 08:43:48;;;;;;;21.63;11.30;;;;;;;;;;6265840;28;20100;-78
2022/04/26 08:53:34;;;;;;;23.90;12.98;;;;;;;;;;6266953;28;20037;-77
2022/04/26 08:56:36;;;;;;;20.48;10.43;;;;;;;;;;6265977;28;20544;-78
2022/04/26 08:59:52;;;;;;;22.30;11.82;;;;;;;;;;6263842;28;20203;-78
2022/04/26 09:03:02;;;;;;;20.25;10.02;;;;;;;;;;6269852;28;20102;-78
2022/04/26 09:06:05;;;;;;;22.10;11.30;;;;;;;;;;6286965;28;20080;-77
2022/04/26 09:09:09;;;;;;;21.77;10.98;;;;;;;;;;6269066;28;20171;-77
2022/04/26 09:12:12;;;;;;;23.05;11.82;;;;;;;;;;6266766;28;20072;-77
2022/04/26 09:15:16;;;;;;;23.02;11.80;;;;;;;;;;6270426;28;20118;-78
2022/04/26 09:18:27;;;;;;;21.38;10.55;;;;;;;;;;6267363;28;20061;-78
2022/04/26 09:21:29;;;;;;;17.77;9.35;;;;;;;;;;6266339;28;20045;-79
2022/04/26 09:24:55;;;;;;;19.20;9.93;;;;;;;;;;6251007;28;20040;-79
2022/04/26 09:27:58;;;;;;;22.05;10.20;;;;;;;;;;6273713;28;20097;-78
2022/04/26 09:31:00;;;;;;;22.67;10.60;;;;;;;;;;6277325;28;20131;-78
2022/04/26 09:34:09;;;;;;;20.80;10.15;;;;;;;;;;6285618;28;20125;-78
2022/04/26 09:37:12;;;;;;;19.95;9.98;;;;;;;;;;6286480;28;20052;-79
2022/04/26 09:40:14;;;;;;;22.20;10.32;;;;;;;;;;6251387;28;20083;-78
2022/04/26 09:43:15;;;;;;;19.98;10.63;;;;;;;;;;6260508;28;20189;-79
2022/04/26 09:46:17;;;;;;;24.05;10.80;;;;;;;;;;6278753;28;20118;-79
2022/04/26 09:49:24;;;;;;;21.02;10.93;;;;;;;;;;6264269;28;20053;-78
2022/04/26 09:52:26;;;;;;;22.42;11.48;;;;;;;;;;6263127;28;20049;-79
2022/04/26 09:55:29;;;;;;;25.23;13.05;;;;;;;;;;6263662;28;20493;-79
2022/04/26 09:58:31;;;;;;;25.98;11.48;;;;;;;;;;6265126;28;20075;-76
2022/04/26 10:01:39;;;;;;;24.38;11.52;;;;;;;;;;6262496;28;20509;-79
2022/04/26 10:04:47;;;;;;;24.38;12.52;;;;;;;;;;6264627;28;20167;-79
2022/04/26 10:07:51;;;;;;;22.35;10.23;;;;;;;;;;6263589;28;20489;-78
2022/04/26 10:10:54;;;;;;;20.63;11.45;;;;;;;;;;6263444;28;20115;-79
2022/04/26 10:13:57;;;;;;;22.60;11.00;;;;;;;;;;6279504;28;20688;-79
2022/04/26 10:16:59;;;;;;;16.38;8.85;;;;;;;;;;6277325;28;20763;-79
2022/04/26 10:20:01;;;;;;;16.90;8.90;;;;;;;;;;6239182;28;20453;-80
2022/04/26 10:23:03;;;;;;;14.50;8.45;;;;;;;;;;6239456;28;20069;-78
2022/04/26 10:26:13;;;;;;;13.05;7.85;;;;;;;;;;6243059;28;20041;-78
2022/04/26 10:29:20;;;;;;;12.85;6.95;;;;;;;;;;6275015;28;20558;-78
2022/04/26 10:32:38;;;;;;;12.63;6.57;;;;;;;;;;6272091;28;20048;-77
2022/04/26 10:35:40;;;;;;;10.30;5.97;;;;;;;;;;6275146;28;20048;-79
2022/04/26 10:39:07;;;;;;;9.73;6.13;;;;;;;;;;6270504;28;21068;-78
2022/04/26 10:42:15;;;;;;;12.82;6.82;;;;;;;;;;6272474;28;20063;-78
2022/04/26 10:45:17;;;;;;;11.07;6.03;;;;;;;;;;6289548;28;20056;-79
2022/04/26 10:48:25;;;;;;;12.15;6.38;;;;;;;;;;6279382;28;20053;-78
2022/04/26 10:51:37;;;;;;;11.77;5.93;;;;;;;;;;6284505;28;20505;-79
2022/04/26 10:55:07;;;;;;;12.23;6.50;;;;;;;;;;6298536;28;20056;-79
2022/04/26 10:58:09;;;;;;;10.35;5.70;;;;;;;;;;6267244;28;20064;-78
2022/04/26 11:01:10;;;;;;;10.00;5.47;;;;;;;;;;6269561;28;20148;-80
2022/04/26 11:04:16;;;;;;;9.65;5.78;;;;;;;;;;6274022;28;20040;-78
2022/04/26 11:07:18;;;;;;;12.10;7.50;;;;;;;;;;6273808;28;20055;-77
2022/04/26 11:10:25;;;;;;;14.50;8.05;;;;;;;;;;6269944;28;20441;-77
2022/04/26 11:13:35;;;;;;;16.05;8.65;;;;;;;;;;6281665;28;20098;-79
2022/04/26 11:16:36;;;;;;;15.32;8.32;;;;;;;;;;6292001;28;20056;-77
2022/04/26 11:19:38;;;;;;;13.63;7.07;;;;;;;;;;6295743;28;20578;-80
2022/04/26 11:22:51;;;;;;;12.07;6.70;;;;;;;;;;6293846;28;20047;-78
2022/04/26 11:29:26;;;;;;;11.90;6.38;;;;;;;;;;6271233;28;20119;-78
2022/04/26 11:32:42;;;;;;;10.48;5.80;;;;;;;;;;6268234;28;20051;-79
2022/04/26 11:35:45;;;;;;;10.63;6.32;;;;;;;;;;6270027;28;20056;-79
2022/04/26 11:38:56;;;;;;;13.77;8.32;;;;;;;;;;6270406;28;20125;-78
2022/04/26 11:41:58;;;;;;;11.93;6.43;;;;;;;;;;6269103;28;20560;-79
2022/04/26 11:45:05;;;;;;;8.85;5.72;;;;;;;;;;6300794;28;20577;-77
2022/04/26 11:48:09;;;;;;;12.40;6.45;;;;;;;;;;6269386;28;20060;-80
2022/04/26 11:51:13;;;;;;;10.68;5.97;;;;;;;;;;6266168;28;20052;-77
2022/04/26 11:54:34;;;;;;;12.00;6.80;;;;;;;;;;6267573;28;20048;-79
2022/04/26 11:57:36;;;;;;;12.20;7.18;;;;;;;;;;6268327;28;21136;-78
2022/04/26 12:00:56;;;;;;;12.30;7.70;;;;;;;;;;6266142;28;20309;-79
2022/04/26 12:03:59;;;;;;;11.63;6.28;;;;;;;;;;6291332;28;20048;-79
2022/04/26 12:07:01;;;;;;;9.45;6.00;;;;;;;;;;6292762;28;20102;-78
2022/04/26 12:10:03;;;;;;;12.23;6.50;;;;;;;;;;6291601;28;20194;-79
2022/04/26 12:13:06;;;;;;;10.68;6.68;;;;;;;;;;6280235;28;20086;-80
2022/04/26 12:16:19;;;;;;;16.40;9.10;;;;;;;;;;6287923;28;20053;-80
2022/04/26 12:19:32;;;;;;;11.65;6.88;;;;;;;;;;6268549;28;20131;-79
2022/04/26 12:22:38;;;;;;;10.73;6.13;;;;;;;;;;6267780;28;20669;-80
2022/04/26 12:25:51;;;;;;;38.50;16.70;;;;;;;;;;6269142;28;20099;-78
2022/04/26 12:28:53;;;;;;;;;;;;;;;;;;6268037;28;20119;-80
2022/04/26 12:31:55;;;;;;;11.50;6.05;;;;;;;;;;6266798;27;19982;-80
2022/04/26 12:35:00;;;;;;;8.38;5.53;;;;;;;;;;6268321;28;20697;-80
2022/04/26 12:38:11;;;;;;;9.48;5.55;;;;;;;;;;6268349;28;20068;-79
2022/04/26 12:41:13;;;;;;;11.93;6.75;;;;;;;;;;6242688;28;20060;-80
2022/04/26 12:44:15;;;;;;;31.98;13.95;;;;;;;;;;6265326;28;20124;-80
2022/04/26 12:50:38;;;;;;;17.80;10.95;;;;;;;;;;6267492;28;20107;-77
2022/04/26 12:53:40;;;;;;;13.43;6.88;;;;;;;;;;6268897;28;20052;-78
2022/04/26 12:57:03;;;;;;;12.40;6.80;;;;;;;;;;6268723;28;20045;-78
2022/04/26 13:00:06;;;;;;;19.30;11.95;;;;;;;;;;6266866;28;20110;-79
2022/04/26 13:03:10;;;;;;;12.67;7.37;;;;;;;;;;6267388;28;20481;-79
2022/04/26 13:06:13;;;;;;;24.27;14.60;;;;;;;;;;6268345;28;20148;-78
2022/04/26 13:09:35;;;;;;;11.32;7.22;;;;;;;;;;6266321;28;20045;-78
2022/04/26 13:12:37;;;;;;;10.15;6.43;;;;;;;;;;6268445;28;20040;-77
2022/04/26 13:15:41;;;;;;;11.68;7.38;;;;;;;;;;6287520;28;20071;-79
2022/04/26 13:18:43;;;;;;;17.50;14.02;;;;;;;;;;6264496;28;20522;-79
2022/04/26 13:21:44;;;;;;;12.27;6.75;;;;;;;;;;6262223;28;20131;-80
2022/04/26 13:24:46;;;;;;;11.15;6.88;;;;;;;;;;6261414;28;20065;-79
2022/04/26 13:27:48;;;;;;;10.45;6.55;;;;;;;;;;6264793;28;20045;-77
2022/04/26 13:30:50;;;;;;;11.55;6.47;;;;;;;;;;6263271;28;20131;-78
2022/04/26 13:33:53;;;;;;;10.20;6.55;;;;;;;;;;6269896;28;20048;-79
2022/04/26 13:36:55;;;;;;;13.10;8.50;;;;;;;;;;6274361;28;20068;-78
2022/04/26 13:39:58;;;;;;;9.55;6.03;;;;;;;;;;6272949;27;20540;-78
2022/04/26 13:43:01;;;;;;;;;;;;;;;;;;6284772;28;20041;-79
2022/04/26 13:46:04;;;;;;;8.13;5.87;;;;;;;;;;6278831;28;19921;-78
2022/04/26 13:49:05;;;;;;;9.75;6.03;;;;;;;;;;6265292;28;20064;-77
2022/04/26 13:52:09;;;;;;;10.50;5.80;;;;;;;;;;6239306;28;20077;-79
2022/04/26 13:55:15;;;;;;;11.32;5.95;;;;;;;;;;6240035;28;20552;-79
2022/04/26 13:58:17;;;;;;;10.98;6.22;;;;;;;;;;6241017;28;20152;-78
2022/04/26 14:01:19;;;;;;;10.73;6.97;;;;;;;;;;6238969;28;20103;-79
2022/04/26 14:04:21;;;;;;;10.32;7.35;;;;;;;;;;6239471;28;20191;-79
2022/04/26 14:07:23;;;;;;;9.55;6.25;;;;;;;;;;6238800;28;20411;-79
2022/04/26 14:10:25;;;;;;;9.05;5.53;;;;;;;;;;6239205;28;20174;-78
2022/04/26 14:13:27;;;;;;;9.68;6.22;;;;;;;;;;6249195;28;20233;-79
2022/04/26 14:23:09;;;;;;;9.35;6.00;;;;;;;;;;6258800;28;20037;-78
2022/04/26 14:26:11;;;;;;;9.82;6.70;;;;;;;;;;6300995;28;20064;-79
2022/04/26 14:29:13;;;;;;;9.02;6.05;;;;;;;;;;6268828;28;20071;-79
2022/04/26 14:32:18;;;;;;;9.52;6.40;;;;;;;;;;6267819;28;20048;-79
2022/04/26 14:35:20;;;;;;;10.18;6.55;;;;;;;;;;6269165;28;20061;-78
2022/04/26 14:38:27;;;;;;;11.05;6.18;;;;;;;;;;6268215;28;20049;-79
2022/04/26 14:41:29;;;;;;;11.80;7.25;;;;;;;;;;6266676;28;20164;-79
2022/04/26 14:44:31;;;;;;;12.30;7.55;;;;;;;;;;6268493;28;20045;-79
2022/04/26 14:47:33;;;;;;;13.60;7.90;;;;;;;;;;6285481;28;20147;-78
2022/04/26 14:50:36;;;;;;;9.43;5.90;;;;;;;;;;6291111;28;20557;-78
2022/04/26 14:53:41;;;;;;;8.43;5.13;;;;;;;;;;6293194;28;20048;-78
2022/04/26 14:56:43;;;;;;;10.80;6.03;;;;;;;;;;6274169;28;20045;-79
2022/04/26 14:59:49;;;;;;;10.00;6.35;;;;;;;;;;6267018;28;20187;-78
2022/04/26 15:02:51;;;;;;;10.95;6.68;;;;;;;;;;6268768;28;20114;-78
2022/04/26 15:05:52;;;;;;;11.02;6.50;;;;;;;;;;6267613;28;20056;-78
2022/04/26 15:18:57;;;;;;;10.75;6.60;;;;;;;;;;6267127;28;20490;-78
2022/04/26 15:21:58;;;;;;;11.20;6.57;;;;;;;;;;6266270;28;20140;-77
2022/04/26 15:25:00;;;;;;;10.65;6.55;;;;;;;;;;6266323;28;20051;-79
2022/04/26 15:28:02;;;;;;;11.77;6.40;;;;;;;;;;6265356;28;20051;-79
2022/04/26 15:31:05;;;;;;;11.38;6.93;;;;;;;;;;6264559;28;20195;-79
2022/04/26 15:34:07;;;;;;;12.48;6.65;;;;;;;;;;6266457;28;20406;-78
2022/04/26 15:37:08;;;;;;;11.68;7.15;;;;;;;;;;6266209;28;20128;-78
2022/04/26 15:40:11;;;;;;;12.18;6.97;;;;;;;;;;6267673;28;20456;-78
2022/04/26 15:43:14;;;;;;;11.63;7.03;;;;;;;;;;6264105;28;20059;-77
2022/04/26 15:46:16;;;;;;;12.05;6.47;;;;;;;;;;6272162;28;20050;-79
2022/04/26 15:49:19;;;;;;;12.30;6.70;;;;;;;;;;6283948;28;20119;-79
2022/04/26 15:52:20;;;;;;;9.63;6.60;;;;;;;;;;6288268;28;20122;-77
2022/04/26 15:55:22;;;;;;;9.50;6.05;;;;;;;;;;6280487;28;20061;-76
2022/04/26 15:58:24;;;;;;;8.30;5.90;;;;;;;;;;6270314;28;20064;-78
2022/04/26 16:01:26;;;;;;;7.72;5.68;;;;;;;;;;6265512;28;20187;-78
2022/04/26 16:04:28;;;;;;;9.30;5.63;;;;;;;;;;6275202;28;20072;-76
2022/04/26 16:07:29;;;;;;;9.60;5.90;;;;;;;;;;6288905;28;20119;-77
2022/04/26 16:20:34;;;;;;;10.15;6.57;;;;;;;;;;6279097;28;20056;-78
2022/04/26 16:23:36;;;;;;;10.95;6.57;;;;;;;;;;6286435;28;20059;-78
2022/04/26 16:26:39;;;;;;;10.95;6.18;;;;;;;;;;6264374;28;20104;-78
2022/04/26 16:29:41;;;;;;;10.25;6.97;;;;;;;;;;6264536;28;20037;-78
2022/04/26 16:32:45;;;;;;;12.85;7.93;;;;;;;;;;6266548;28;20069;-78
2022/04/26 16:35:47;;;;;;;12.35;6.88;;;;;;;;;;6267899;28;20061;-78
2022/04/26 16:38:49;;;;;;;12.90;7.35;;;;;;;;;;6262352;28;20048;-79
2022/04/26 16:41:51;;;;;;;14.02;7.78;;;;;;;;;;6280235;28;20155;-79
2022/04/26 16:44:52;;;;;;;13.65;7.72;;;;;;;;;;6283903;28;20044;-79
2022/04/26 16:47:54;;;;;;;12.15;7.57;;;;;;;;;;6267747;28;20186;-78
2022/04/26 16:50:56;;;;;;;11.52;6.45;;;;;;;;;;6305180;28;20047;-78
2022/04/26 16:53:57;;;;;;;11.68;7.53;;;;;;;;;;6286041;28;20448;-78
2022/04/26 16:57:01;;;;;;;14.85;7.43;;;;;;;;;;6287472;28;20371;-79
2022/04/26 17:00:04;;;;;;;13.55;7.65;;;;;;;;;;6287853;28;20048;-78
2022/04/26 17:03:14;;;;;;;16.33;8.50;;;;;;;;;;6344084;27;20180;-78
2022/04/26 17:06:18;;;;;;;16.50;9.18;;;;;;;;;;6305920;28;20513;-79
2022/04/26 17:09:20;;;;;;;14.98;8.32;;;;;;;;;;6307387;28;20117;-77
2022/04/26 17:12:26;;;;;;;14.90;9.17;;;;;;;;;;6283524;28;20449;-80
2022/04/26 17:15:31;;;;;;;17.08;10.15;;;;;;;;;;6284018;28;20080;-78
2022/04/26 17:18:33;;;;;;;16.58;9.13;;;;;;;;;;6308881;28;20099;-77
2022/04/26 17:21:36;;;;;;;13.73;8.53;;;;;;;;;;6307123;28;20087;-78
2022/04/26 17:28:00;;;;;;;14.38;9.05;;;;;;;;;;6306378;28;20040;-78
2022/04/26 17:31:05;;;;;;;16.35;8.25;;;;;;;;;;6305319;28;20173;-77
2022/04/26 17:34:10;;;;;;;16.27;8.75;;;;;;;;;;6306033;28;20052;-77
2022/04/26 17:37:14;;;;;;;14.93;8.45;;;;;;;;;;6275992;28;20197;-77
2022/04/26 17:40:16;;;;;;;14.75;8.55;;;;;;;;;;6284939;28;20142;-79
2022/04/26 17:43:18;;;;;;;17.25;8.85;;;;;;;;;;6309090;28;20119;-78
2022/04/26 17:46:21;;;;;;;12.90;8.10;;;;;;;;;;6298401;28;20086;-78
2022/04/26 17:49:23;;;;;;;11.27;7.13;;;;;;;;;;6259481;28;20042;-79
2022/04/26 17:52:29;;;;;;;14.38;8.15;;;;;;;;;;6255687;28;20147;-79
2022/04/26 17:58:51;;;;;;;16.35;9.40;;;;;;;;;;6282906;28;20234;-79
2022/04/26 18:01:52;;;;;;;13.32;8.05;;;;;;;;;;6278792;28;20045;-77
2022/04/26 18:04:54;;;;;;;15.68;9.15;;;;;;;;;;6281334;28;20502;-77
2022/04/26 18:07:56;;;;;;;15.18;8.88;;;;;;;;;;6283328;28;20469;-79
2022/04/26 18:10:58;;;;;;;13.50;8.40;;;;;;;;;;6279635;28;20051;-78
2022/04/26 18:14:00;;;;;;;16.30;9.18;;;;;;;;;;6242073;28;20045;-79
2022/04/26 18:17:02;;;;;;;15.30;8.43;;;;;;;;;;6264283;28;20041;-79
2022/04/26 18:20:04;;;;;;;13.97;8.60;;;;;;;;;;6261299;28;20696;-79
2022/04/26 18:23:06;;;;;;;14.95;8.70;;;;;;;;;;6256409;28;20052;-76
2022/04/26 18:26:10;;;;;;;14.10;8.48;;;;;;;;;;6262911;28;20128;-78
2022/04/26 18:29:19;;;;;;;14.43;8.73;;;;;;;;;;6258824;28;20049;-79
2022/04/26 18:32:21;;;;;;;15.38;9.57;;;;;;;;;;6253730;28;20745;-77
2022/04/26 18:35:23;;;;;;;17.55;8.82;;;;;;;;;;6269983;28;20481;-79
2022/04/26 18:38:25;;;;;;;15.32;8.82;;;;;;;;;;6262057;28;20435;-78
2022/04/26 18:41:29;;;;;;;15.75;9.05;;;;;;;;;;6264346;28;20055;-77
2022/04/26 18:44:30;;;;;;;15.68;9.65;;;;;;;;;;6287256;28;20072;-78
2022/04/26 18:47:32;;;;;;;16.40;9.48;;;;;;;;;;6271468;28;20060;-78
2022/04/26 18:50:35;;;;;;;16.98;9.18;;;;;;;;;;6263596;28;20061;-78
2022/04/26 18:53:37;;;;;;;17.83;9.57;;;;;;;;;;6264814;28;20514;-78
2022/04/26 18:56:38;;;;;;;19.95;11.75;;;;;;;;;;6254822;28;20141;-78
2022/04/26 18:59:42;;;;;;;23.33;12.32;;;;;;;;;;6240576;28;20123;-79
2022/04/26 19:02:44;;;;;;;28.98;14.50;;;;;;;;;;6257805;28;20059;-78
2022/04/26 19:05:46;;;;;;;28.48;14.23;;;;;;;;;;6272054;28;20044;-78
2022/04/26 19:08:48;;;;;;;37.50;16.35;;;;;;;;;;6257482;28;20045;-77
2022/04/26 19:15:10;;;;;;;31.38;15.60;;;;;;;;;;6257019;28;20103;-77
2022/04/26 19:18:12;;;;;;;25.25;13.35;;;;;;;;;;6277990;28;20047;-76
2022/04/26 19:21:14;;;;;;;24.45;13.07;;;;;;;;;;6279324;28;20143;-77
2022/04/26 19:24:15;;;;;;;18.65;9.85;;;;;;;;;;6279090;28;20045;-79
2022/04/26 19:27:17;;;;;;;18.40;10.65;;;;;;;;;;6258013;28;20130;-78
2022/04/26 19:30:19;;;;;;;23.45;10.73;;;;;;;;;;6255678;28;20130;-78
2022/04/26 19:33:21;;;;;;;24.20;12.23;;;;;;;;;;6256752;28;20045;-77
2022/04/26 19:36:26;;;;;;;19.35;10.57;;;;;;;;;;6259255;28;20041;-79
2022/04/26 19:39:28;;;;;;;19.90;10.45;;;;;;;;;;6258722;28;20136;-79
2022/04/26 19:42:29;;;;;;;23.00;11.90;;;;;;;;;;6256012;28;20658;-76
2022/04/26 19:45:31;;;;;;;19.75;11.07;;;;;;;;;;6242952;28;20126;-75
2022/04/26 19:48:33;;;;;;;17.95;10.80;;;;;;;;;;6281240;28;20063;-77
2022/04/26 19:51:36;;;;;;;24.73;13.07;;;;;;;;;;6280554;28;20563;-79
2022/04/26 19:54:38;;;;;;;20.70;12.25;;;;;;;;;;6284034;28;20055;-79
2022/04/26 19:57:40;;;;;;;25.33;13.85;;;;;;;;;;6282944;28;20070;-76
2022/04/26 20:00:42;;;;;;;28.52;14.75;;;;;;;;;;6279250;28;20044;-79
2022/04/26 20:03:46;;;;;;;32.97;15.13;;;;;;;;;;6283433;28;20037;-79
2022/04/26 20:06:48;;;;;;;35.13;15.23;;;;;;;;;;6282664;28;20044;-78
2022/04/26 20:09:50;;;;;;;31.85;15.82;;;;;;;;;;6279807;28;20702;-80
2022/04/26 20:12:58;;;;;;;29.35;14.23;;;;;;;;;;6275519;28;20037;-76
2022/04/26 20:16:00;;;;;;;23.73;10.38;;;;;;;;;;6259260;28;20136;-77
2022/04/26 20:19:03;;;;;;;23.05;11.32;;;;;;;;;;6281853;28;20123;-76
2022/04/26 20:22:04;;;;;;;21.55;9.80;;;;;;;;;;6280134;28;20040;-79
2022/04/26 20:25:06;;;;;;;19.48;10.18;;;;;;;;;;6267779;28;20055;-78
2022/04/26 20:31:29;;;;;;;21.42;11.18;;;;;;;;;;6256832;28;20151;-76
2022/04/26 20:34:30;;;;;;;27.83;13.25;;;;;;;;;;6256235;28;20103;-77
2022/04/26 20:37:33;;;;;;;26.20;12.20;;;;;;;;;;6255795;28;20044;-79
2022/04/26 20:40:34;;;;;;;20.67;11.80;;;;;;;;;;6248625;28;20055;-78
2022/04/26 20:43:36;;;;;;;25.42;12.95;;;;;;;;;;6257721;28;20093;-78
2022/04/26 20:46:37;;;;;;;20.70;10.73;;;;;;;;;;6244719;28;20570;-78
2022/04/26 20:49:40;;;;;;;22.10;9.90;;;;;;;;;;6231257;28;20108;-78
2022/04/26 20:52:42;;;;;;;18.75;10.35;;;;;;;;;;6230990;28;20053;-78
2022/04/26 20:55:44;;;;;;;19.70;9.57;;;;;;;;;;6231186;28;20128;-79
2022/04/26 20:58:45;;;;;;;19.05;10.90;;;;;;;;;;6257082;28;20136;-78
2022/04/26 21:01:47;;;;;;;21.95;11.07;;;;;;;;;;6255442;28;20079;-79
2022/04/26 21:04:49;;;;;;;18.70;10.20;;;;;;;;;;6257874;28;20465;-80
2022/04/26 21:07:50;;;;;;;19.52;10.35;;;;;;;;;;6260371;28;20048;-80
2022/04/26 21:10:52;;;;;;;19.05;10.55;;;;;;;;;;6257985;28;20041;-78
2022/04/26 21:13:54;;;;;;;20.40;10.40;;;;;;;;;;6258789;28;20045;-76
2022/04/26 21:16:56;;;;;;;19.35;10.00;;;;;;;;;;6258942;28;20069;-77
2022/04/26 21:19:57;;;;;;;19.67;10.25;;;;;;;;;;6257600;28;20117;-77
2022/04/26 21:22:59;;;;;;;22.70;11.70;;;;;;;;;;6259824;28;20041;-77
2022/04/26 21:26:01;;;;;;;23.55;11.45;;;;;;;;;;6267622;28;20131;-80
2022/04/26 21:29:02;;;;;;;24.15;13.05;;;;;;;;;;6282574;28;20134;-76
2022/04/26 21:32:04;;;;;;;20.05;10.93;;;;;;;;;;6280699;28;20700;-77
2022/04/26 21:35:07;;;;;;;22.17;11.30;;;;;;;;;;6283661;28;20201;-77
2022/04/26 21:38:09;;;;;;;22.98;11.25;;;;;;;;;;6283345;28;20040;-77
2022/04/26 21:41:11;;;;;;;24.02;12.60;;;;;;;;;;6263220;28;20126;-78
2022/04/26 21:44:13;;;;;;;24.63;11.70;;;;;;;;;;6256607;28;20098;-77
2022/04/26 21:47:14;;;;;;;25.23;12.80;;;;;;;;;;6255764;28;21223;-78
2022/04/26 21:53:36;;;;;;;24.75;12.50;;;;;;;;;;6261480;28;20111;-78
2022/04/26 21:56:38;;;;;;;26.05;12.85;;;;;;;;;;6267669;28;20107;-77
2022/04/26 21:59:40;;;;;;;24.58;12.32;;;;;;;;;;6284389;28;20143;-78
2022/04/26 22:02:41;;;;;;;22.77;11.70;;;;;;;;;;6266308;28;20044;-77
2022/04/26 22:05:45;;;;;;;21.15;11.82;;;;;;;;;;6261771;28;20087;-79
2022/04/26 22:08:47;;;;;;;26.65;13.35;;;;;;;;;;6259971;28;20126;-79
2022/04/26 22:11:48;;;;;;;25.83;12.95;;;;;;;;;;6259181;28;20074;-78
2022/04/26 22:14:50;;;;;;;26.60;13.30;;;;;;;;;;6237481;28;20041;-77
2022/04/26 22:17:51;;;;;;;22.73;12.52;;;;;;;;;;6225627;28;20050;-79
2022/04/26 22:20:53;;;;;;;22.45;12.85;;;;;;;;;;6210738;28;20519;-76
2022/04/26 22:23:55;;;;;;;22.77;11.82;;;;;;;;;;6243665;28;20709;-78
2022/04/26 22:26:57;;;;;;;25.33;12.45;;;;;;;;;;6286162;28;20070;-80
2022/04/26 22:29:59;;;;;;;25.92;13.10;;;;;;;;;;6283606;28;20112;-78
2022/04/26 22:33:00;;;;;;;30.45;13.55;;;;;;;;;;6263038;28;20480;-80
2022/04/26 22:36:02;;;;;;;24.52;13.00;;;;;;;;;;6260174;28;20151;-79
2022/04/26 22:39:04;;;;;;;25.42;13.13;;;;;;;;;;6261317;28;20195;-79
2022/04/26 22:42:05;;;;;;;25.83;12.30;;;;;;;;;;6255586;28;20055;-77
2022/04/26 22:45:08;;;;;;;30.25;13.73;;;;;;;;;;6236320;28;20049;-78